Aeroporto :
LOGIN :

Iscrizione | Disclaimer

   EN    FR    IT 

 










Sommario :    VFR   VFR Marginale   IFR   IFR Intensivo   IFR Molto Intensivo
Visibilità : 
Base nubi : 
>= 8 km
>= 3000ft
5 / 8 km
1000 / 3000 ft
1500m / 5 km
500 / 1000 ft
800 / 1500m
200 / 500 ft
< 800m
< 200 ft
Simboli :   Temporali  Nebbia  Neve Forte  Precipitazioni Forti  Vento > 20 kt
SIGMETs :   Varie  Temporali  Ghiacco  Turbolenza  Onda orograficha  Ceneri Vulcaniche






- Altitudine del aeroporto : 72 ft
- Codice IATA : UDE


EHVK - Volkel Airbase

ULTIMO METAR :
  • 250425Z AUTO VRB02KT 7000 BR FEW015CB BKN094 OVC110 10/10 Q1018 WHT

METARs OBSOLETI :
  • 250355Z AUTO VRB01KT 5000 BR OVC110 07/07 Q1018 WHT
  • 250339Z AUTO 20002KT 6000 BR OVC270 07/07 Q1018 WHT
  • 250326Z AUTO VRB02KT 6000 BR OVC280 06/06 Q1018 WHT
  • 250325Z AUTO VRB02KT 3300 BR OVC280 07/07 Q1018 YLO
  • 250310Z AUTO 25002KT 1000 BR OVC280 07/07 Q1018 AMB
  • 250255Z AUTO 00000KT 7000 BR OVC300 06/06 Q1018 WHT
  • 250239Z AUTO 25001KT 9999 NCD 06/06 Q1019 BLU
  • 250229Z AUTO 25001KT 4100 BR NCD 06/06 Q1019 GRN
  • 250225Z AUTO VRB01KT 8000 BR NCD 07/06 Q1019 BLU
  • 250155Z AUTO 27003KT 9999 NCD 08/07 Q1019 BLU
  • 250125Z AUTO 25003KT 9999 NCD 09/08 Q1019 BLU

TAF TAF EHVK
Valido dal 25 a 01 ore il 25 a 13 ore UTC


250031Z 2501/2513 VRB02KT 6000 NSC
PROB40 2501/2504 3000 BR
BECMG 2504/2506 21005KT
BECMG 2510/2511 23010KT



MetMap, La meteo Aeronautica in un colpo d'occhio ! - Copyright ORBIFLY Dicembre 2007 - Disclaimer

ORBIFLY MET'MAP TEAM :

Programmazione e sviluppo : Alexandra Zaïnal
Concezione : Baudouin d'Aumeries
Aiuto per la programmazione : Marc-Olivier Méhu
Supporto tecnico e logistico : Manuel Goepfert
Aiuto per la traduzione : Arnaldo La Scala

Contatto : metmap@orbifly.com




FONTI E CREDITI :

   NOAA